Time;durP1;ratioP1;P1;durP2;ratioP2;P2;SDS_P1;SDS_P2;PMS_P1;PMS_P2;Temp;Humidity;BMP_temperature;BMP_pressure;BME280_temperature;BME280_humidity;BME280_pressure;Samples;Min_cycle;Max_cycle;Signal;HPM_P1;HPM_P2
2023/09/23 00:01:36;;;;;;;1.40;1.35;;;14.00;99.90;;;;;;4984650;28;20053;-84
2023/09/23 00:04:03;;;;;;;1.20;1.20;;;13.90;99.90;;;;;;4985200;28;20046;-85
2023/09/23 00:06:28;;;;;;;1.25;1.25;;;14.00;99.90;;;;;;4986743;28;20062;-83
2023/09/23 00:08:55;;;;;;;1.15;1.15;;;14.00;99.90;;;;;;4982635;28;20081;-85
2023/09/23 00:11:21;;;;;;;1.15;1.15;;;13.70;99.90;;;;;;4983686;28;20057;-84
2023/09/23 00:13:47;;;;;;;1.00;1.00;;;13.80;99.90;;;;;;4969776;28;20042;-83
2023/09/23 00:16:15;;;;;;;1.20;1.20;;;14.10;99.90;;;;;;4982930;28;20038;-83
2023/09/23 00:18:41;;;;;;;1.13;1.13;;;13.80;99.90;;;;;;4983041;28;20529;-83
2023/09/23 00:21:07;;;;;;;1.17;1.17;;;14.00;99.90;;;;;;4985125;28;20099;-85
2023/09/23 00:23:34;;;;;;;1.00;1.00;;;14.20;99.90;;;;;;4983874;28;20125;-86
2023/09/23 00:26:01;;;;;;;1.20;1.20;;;14.20;99.90;;;;;;4980582;28;20517;-85
2023/09/23 00:28:30;;;;;;;1.25;1.25;;;14.10;99.90;;;;;;4984051;28;20049;-83
2023/09/23 00:31:09;;;;;;;1.15;1.15;;;14.00;99.90;;;;;;4986018;28;20064;-84
2023/09/23 00:33:39;;;;;;;1.15;1.15;;;14.10;99.90;;;;;;4985040;28;20072;-84
2023/09/23 00:36:07;;;;;;;1.08;1.08;;;14.20;99.90;;;;;;4985923;28;20046;-84
2023/09/23 00:38:33;;;;;;;1.13;1.13;;;13.80;99.90;;;;;;5001089;28;20045;-83
2023/09/23 00:40:58;;;;;;;0.95;0.95;;;14.00;99.90;;;;;;4985999;28;20129;-84
2023/09/23 00:43:24;;;;;;;1.25;1.25;;;13.90;99.90;;;;;;4968920;28;20635;-84
2023/09/23 00:45:54;;;;;;;1.20;1.20;;;13.90;99.90;;;;;;4977749;28;20054;-84
2023/09/23 00:48:21;;;;;;;1.17;1.17;;;13.90;99.90;;;;;;4982463;28;20586;-83
2023/09/23 00:50:48;;;;;;;1.10;1.10;;;14.10;99.90;;;;;;4983581;28;20086;-84
2023/09/23 00:53:14;;;;;;;1.20;1.20;;;14.00;99.90;;;;;;4982336;28;20517;-83
2023/09/23 00:55:42;;;;;;;0.95;0.95;;;13.80;99.90;;;;;;4999067;28;20157;-84
2023/09/23 00:58:14;;;;;;;1.23;1.23;;;14.20;99.90;;;;;;4999340;28;20546;-83
2023/09/23 01:00:44;;;;;;;1.30;1.27;;;13.90;99.90;;;;;;4982721;28;20065;-83
2023/09/23 01:03:10;;;;;;;1.15;1.15;;;13.90;99.90;;;;;;4985460;28;20072;-84
2023/09/23 01:05:36;;;;;;;1.20;1.20;;;13.80;99.90;;;;;;4982153;28;20046;-85
2023/09/23 01:08:04;;;;;;;1.13;1.13;;;14.10;99.90;;;;;;4984254;28;20380;-83
2023/09/23 01:10:30;;;;;;;1.38;1.35;;;14.10;99.90;;;;;;4998656;28;20091;-83
2023/09/23 01:12:56;;;;;;;1.15;1.15;;;13.80;99.90;;;;;;4984065;28;20842;-83
2023/09/23 01:15:25;;;;;;;1.25;1.25;;;13.70;99.90;;;;;;4984714;28;20168;-84
2023/09/23 01:17:53;;;;;;;1.23;1.23;;;13.80;99.90;;;;;;4982030;28;20058;-85
2023/09/23 01:20:20;;;;;;;1.05;1.05;;;13.70;99.90;;;;;;4984682;28;22211;-84
2023/09/23 01:22:47;;;;;;;1.25;1.25;;;13.90;99.90;;;;;;4984648;28;20058;-84
2023/09/23 01:25:13;;;;;;;1.15;1.15;;;13.50;99.90;;;;;;4983370;28;20120;-85
2023/09/23 01:27:40;;;;;;;1.25;1.25;;;13.60;99.90;;;;;;4984475;28;20050;-85
2023/09/23 01:30:07;;;;;;;1.25;1.25;;;13.40;99.90;;;;;;4982021;28;20518;-85
2023/09/23 01:32:42;;;;;;;1.20;1.20;;;13.60;99.90;;;;;;4985682;28;20050;-85
2023/09/23 01:35:09;;;;;;;1.10;1.10;;;13.50;99.90;;;;;;4981435;28;20053;-86
2023/09/23 01:37:35;;;;;;;1.20;1.20;;;13.50;99.90;;;;;;4985773;28;20050;-84
2023/09/23 01:40:03;;;;;;;1.15;1.15;;;13.40;99.90;;;;;;4998459;28;20128;-85
2023/09/23 01:42:30;;;;;;;1.20;1.20;;;13.70;99.90;;;;;;4980482;28;20107;-85
2023/09/23 01:44:57;;;;;;;1.08;1.08;;;13.40;99.90;;;;;;4983426;28;20574;-84
2023/09/23 01:47:23;;;;;;;1.10;1.10;;;13.60;99.90;;;;;;4966406;28;20133;-86
2023/09/23 01:49:49;;;;;;;1.15;1.15;;;13.70;99.90;;;;;;4969185;28;20046;-86
2023/09/23 01:52:17;;;;;;;1.08;1.08;;;13.30;99.90;;;;;;4985484;28;20049;-84
2023/09/23 01:54:48;;;;;;;0.85;0.85;;;13.40;99.90;;;;;;4984412;28;20399;-87
2023/09/23 01:57:16;;;;;;;0.95;0.95;;;13.30;99.90;;;;;;4987546;28;20042;-87
2023/09/23 01:59:45;;;;;;;0.98;0.98;;;13.70;99.90;;;;;;4976054;28;20038;-85
2023/09/23 02:02:11;;;;;;;0.85;0.85;;;13.60;99.90;;;;;;4986365;28;20081;-85
2023/09/23 02:04:40;;;;;;;0.93;0.93;;;13.40;99.90;;;;;;4985229;28;20152;-86
2023/09/23 02:07:10;;;;;;;0.85;0.85;;;13.40;99.90;;;;;;4985327;28;20042;-85
2023/09/23 02:09:39;;;;;;;0.98;0.98;;;13.50;99.90;;;;;;4969453;28;20188;-84
2023/09/23 02:12:05;;;;;;;0.95;0.95;;;13.40;99.90;;;;;;4983416;28;20053;-85
2023/09/23 02:14:31;;;;;;;0.95;0.95;;;13.30;99.90;;;;;;4984894;28;20076;-87
2023/09/23 02:16:57;;;;;;;0.93;0.93;;;13.60;99.90;;;;;;4984327;28;20038;-86
2023/09/23 02:19:24;;;;;;;0.95;0.95;;;13.60;99.90;;;;;;4984722;28;20065;-85
2023/09/23 02:21:51;;;;;;;0.93;0.93;;;13.50;99.90;;;;;;4985591;28;20189;-86
2023/09/23 02:24:20;;;;;;;0.88;0.88;;;13.50;99.90;;;;;;4984323;28;20076;-85
2023/09/23 02:26:46;;;;;;;0.88;0.88;;;13.30;99.90;;;;;;4982282;28;20049;-86
2023/09/23 02:29:14;;;;;;;0.88;0.88;;;13.30;99.90;;;;;;4981570;28;20083;-86
2023/09/23 02:31:48;;;;;;;0.90;0.90;;;13.30;99.90;;;;;;5000187;28;20048;-85
2023/09/23 02:34:18;;;;;;;0.90;0.90;;;13.50;99.90;;;;;;4985714;28;20061;-85
2023/09/23 02:36:47;;;;;;;0.80;0.80;;;13.50;99.90;;;;;;4981722;28;20054;-86
2023/09/23 02:39:17;;;;;;;0.90;0.90;;;13.30;99.90;;;;;;4969290;28;20073;-85
2023/09/23 02:41:46;;;;;;;0.85;0.85;;;13.30;99.90;;;;;;5001984;28;20131;-84
2023/09/23 02:44:19;;;;;;;1.00;1.00;;;13.30;99.90;;;;;;4968306;28;20185;-84
2023/09/23 02:46:52;;;;;;;1.00;1.00;;;13.00;99.90;;;;;;4985761;28;20383;-84
2023/09/23 02:49:19;;;;;;;1.02;1.02;;;12.90;99.90;;;;;;4982904;28;20095;-85
2023/09/23 02:51:45;;;;;;;0.95;0.95;;;12.90;99.90;;;;;;4985355;28;20128;-85
2023/09/23 02:54:13;;;;;;;1.00;1.00;;;13.00;99.90;;;;;;4983933;28;20419;-85
2023/09/23 02:56:40;;;;;;;0.98;0.98;;;12.70;99.90;;;;;;4986480;28;20133;-84
2023/09/23 02:59:13;;;;;;;0.95;0.95;;;12.80;99.90;;;;;;4982237;28;20052;-84
2023/09/23 03:01:45;;;;;;;0.98;0.98;;;12.80;99.90;;;;;;4990427;28;20624;-84
2023/09/23 03:04:16;;;;;;;0.93;0.93;;;12.70;99.90;;;;;;4985392;28;20775;-84
2023/09/23 03:06:49;;;;;;;0.90;0.90;;;12.70;99.90;;;;;;4985284;28;20050;-84
2023/09/23 03:09:19;;;;;;;1.03;1.03;;;12.80;99.90;;;;;;4983272;28;20045;-84
2023/09/23 03:11:53;;;;;;;1.10;1.10;;;12.50;99.90;;;;;;4985093;28;20518;-82
2023/09/23 03:14:35;;;;;;;1.00;1.00;;;12.80;99.90;;;;;;5000427;28;20439;-83
2023/09/23 03:17:04;;;;;;;1.00;1.00;;;12.40;99.90;;;;;;4965625;28;20124;-84
2023/09/23 03:19:32;;;;;;;1.00;1.00;;;12.60;99.90;;;;;;4984268;28;20142;-83
2023/09/23 03:21:58;;;;;;;1.00;1.00;;;12.50;99.90;;;;;;4984734;28;20046;-82
2023/09/23 03:24:26;;;;;;;1.00;1.00;;;12.50;99.90;;;;;;4986621;28;20049;-84
2023/09/23 03:26:59;;;;;;;1.30;1.30;;;12.60;99.90;;;;;;4988833;28;20100;-83
2023/09/23 03:29:28;;;;;;;1.30;1.30;;;12.40;99.90;;;;;;4983895;28;20046;-82
2023/09/23 03:31:55;;;;;;;1.48;1.40;;;12.50;99.90;;;;;;4987889;28;20124;-83
2023/09/23 03:34:21;;;;;;;1.10;1.10;;;12.70;99.90;;;;;;4988092;28;20048;-82
2023/09/23 03:36:47;;;;;;;1.02;1.02;;;12.40;99.90;;;;;;4987849;28;20057;-82
2023/09/23 03:39:13;;;;;;;1.10;1.10;;;12.60;99.90;;;;;;4987911;28;20052;-83
2023/09/23 03:41:44;;;;;;;1.15;1.15;;;12.50;99.90;;;;;;4988398;28;20053;-84
2023/09/23 03:44:09;;;;;;;1.50;1.40;;;12.60;99.90;;;;;;4987603;28;21557;-84
2023/09/23 03:46:36;;;;;;;1.50;1.40;;;12.50;99.90;;;;;;4988508;28;20066;-83
2023/09/23 03:49:02;;;;;;;1.50;1.40;;;12.40;99.90;;;;;;4987531;28;20061;-83
2023/09/23 03:51:27;;;;;;;1.38;1.38;;;12.60;99.90;;;;;;4986043;28;20060;-84
2023/09/23 03:53:53;;;;;;;1.40;1.35;;;12.40;99.90;;;;;;4988162;28;20061;-82
2023/09/23 03:56:24;;;;;;;1.48;1.40;;;12.60;99.90;;;;;;4988736;28;20509;-84
2023/09/23 03:58:51;;;;;;;1.27;1.27;;;12.60;99.90;;;;;;4974407;28;20053;-82
2023/09/23 04:01:17;;;;;;;1.35;1.35;;;12.60;99.90;;;;;;4991739;28;20058;-84
2023/09/23 04:03:43;;;;;;;1.50;1.40;;;12.30;99.90;;;;;;4987834;28;20049;-83
2023/09/23 04:06:09;;;;;;;1.42;1.38;;;12.40;99.90;;;;;;4991126;28;20065;-83
2023/09/23 04:08:35;;;;;;;1.45;1.38;;;12.30;99.90;;;;;;4971895;28;20045;-83
2023/09/23 04:11:05;;;;;;;1.40;1.35;;;12.30;99.90;;;;;;4987736;28;20072;-81
2023/09/23 04:13:31;;;;;;;1.48;1.40;;;12.30;99.90;;;;;;4988318;28;20049;-82
2023/09/23 04:16:00;;;;;;;1.52;1.45;;;12.20;99.90;;;;;;4971635;28;20053;-82
2023/09/23 04:18:30;;;;;;;1.63;1.52;;;12.10;99.90;;;;;;4987372;28;20046;-82
2023/09/23 04:20:57;;;;;;;1.48;1.40;;;12.40;99.90;;;;;;4968835;28;20045;-82
2023/09/23 04:23:22;;;;;;;1.45;1.40;;;12.30;99.90;;;;;;5004913;28;20419;-82
2023/09/23 04:25:49;;;;;;;1.27;1.27;;;12.10;99.90;;;;;;4988003;28;20046;-82
2023/09/23 04:28:18;;;;;;;1.25;1.25;;;12.20;99.90;;;;;;4987108;28;20706;-82
2023/09/23 04:30:45;;;;;;;1.30;1.30;;;12.20;99.90;;;;;;4988026;28;20121;-84
2023/09/23 04:33:13;;;;;;;1.25;1.25;;;12.40;99.90;;;;;;4987344;28;20053;-82
2023/09/23 04:35:39;;;;;;;1.15;1.15;;;12.50;99.90;;;;;;4986952;28;20049;-82
2023/09/23 04:38:05;;;;;;;1.23;1.23;;;12.20;99.90;;;;;;4988006;28;20049;-83
2023/09/23 04:40:31;;;;;;;1.33;1.30;;;12.40;99.90;;;;;;4987351;28;20407;-83
2023/09/23 04:42:57;;;;;;;1.33;1.30;;;12.40;99.90;;;;;;4987004;28;20072;-84
2023/09/23 04:45:24;;;;;;;1.48;1.40;;;12.40;99.90;;;;;;4986303;28;20054;-82
2023/09/23 04:47:52;;;;;;;1.33;1.30;;;12.60;99.90;;;;;;4992207;28;20049;-82
2023/09/23 04:50:18;;;;;;;1.38;1.35;;;12.60;99.90;;;;;;4988146;28;20053;-82
2023/09/23 04:52:46;;;;;;;1.60;1.50;;;12.50;99.90;;;;;;4987760;28;20045;-82
2023/09/23 04:55:12;;;;;;;1.40;1.35;;;12.40;99.90;;;;;;4985366;28;20041;-83
2023/09/23 04:57:38;;;;;;;1.40;1.35;;;12.30;99.90;;;;;;4989015;28;20053;-82
2023/09/23 05:00:05;;;;;;;1.33;1.30;;;12.40;99.90;;;;;;4983726;28;20107;-84
2023/09/23 05:02:31;;;;;;;1.67;1.58;;;12.50;99.90;;;;;;4986852;28;20100;-83
2023/09/23 05:04:57;;;;;;;1.63;1.52;;;12.20;99.90;;;;;;4986967;28;20046;-82
2023/09/23 05:07:26;;;;;;;1.60;1.50;;;12.60;99.90;;;;;;4986684;28;20049;-83
2023/09/23 05:09:55;;;;;;;1.60;1.50;;;12.60;99.90;;;;;;4987814;28;20103;-83
2023/09/23 05:12:21;;;;;;;1.45;1.40;;;12.50;99.90;;;;;;4992850;28;20042;-84
2023/09/23 05:14:47;;;;;;;1.77;1.67;;;12.40;99.90;;;;;;4987312;28;20049;-83
2023/09/23 05:17:15;;;;;;;1.75;1.65;;;12.60;99.90;;;;;;4986395;28;20046;-84
2023/09/23 05:19:47;;;;;;;1.60;1.50;;;12.30;99.90;;;;;;4986434;28;20604;-86
2023/09/23 05:22:13;;;;;;;1.65;1.55;;;12.70;99.90;;;;;;4985530;28;20045;-83
2023/09/23 05:24:39;;;;;;;1.70;1.60;;;12.60;99.90;;;;;;4990000;28;20455;-81
2023/09/23 05:27:05;;;;;;;1.85;1.75;;;12.80;99.90;;;;;;4985720;28;20048;-82
2023/09/23 05:29:30;;;;;;;1.65;1.55;;;12.80;99.90;;;;;;4986223;28;20044;-82
2023/09/23 05:31:57;;;;;;;2.13;2.03;;;12.80;99.90;;;;;;4972368;28;20053;-82
2023/09/23 05:34:22;;;;;;;1.60;1.50;;;12.50;99.90;;;;;;4985764;28;20049;-82
2023/09/23 05:36:48;;;;;;;1.65;1.55;;;12.80;99.90;;;;;;4986655;28;20046;-83
2023/09/23 05:39:18;;;;;;;1.60;1.50;;;12.60;99.90;;;;;;4987309;28;20802;-83
2023/09/23 05:41:45;;;;;;;1.75;1.65;;;12.60;99.90;;;;;;4986345;28;20050;-83
2023/09/23 05:44:12;;;;;;;1.77;1.67;;;12.90;99.90;;;;;;4968651;28;20046;-82
2023/09/23 05:46:38;;;;;;;1.67;1.58;;;12.70;99.90;;;;;;5002607;28;20070;-84
2023/09/23 05:49:05;;;;;;;1.80;1.70;;;12.90;99.90;;;;;;4985085;28;20061;-83
2023/09/23 05:51:35;;;;;;;1.75;1.65;;;13.00;99.90;;;;;;4984055;28;20139;-80
2023/09/23 05:54:01;;;;;;;1.83;1.73;;;12.60;99.90;;;;;;4986501;28;20069;-81
2023/09/23 05:56:27;;;;;;;1.80;1.70;;;12.60;99.90;;;;;;4970294;28;20069;-84
2023/09/23 05:58:53;;;;;;;1.75;1.65;;;12.90;99.90;;;;;;4986370;28;20588;-82
2023/09/23 06:01:18;;;;;;;1.88;1.77;;;12.70;99.90;;;;;;4988479;28;20053;-83
2023/09/23 06:03:44;;;;;;;1.42;1.35;;;12.70;99.90;;;;;;4985920;28;20052;-84
2023/09/23 06:06:11;;;;;;;1.52;1.45;;;13.10;99.90;;;;;;4985659;28;20045;-84
2023/09/23 06:08:37;;;;;;;1.52;1.45;;;13.00;99.90;;;;;;4985416;28;20116;-83
2023/09/23 06:11:04;;;;;;;1.95;1.85;;;13.20;99.90;;;;;;4986143;28;20054;-83
2023/09/23 06:13:34;;;;;;;1.95;1.85;;;13.20;99.90;;;;;;4990498;28;20050;-81
2023/09/23 06:16:04;;;;;;;2.05;1.95;;;13.20;99.90;;;;;;4984908;28;20124;-83
2023/09/23 06:18:30;;;;;;;1.77;1.67;;;13.00;99.90;;;;;;4985722;28;20161;-83
2023/09/23 06:21:04;;;;;;;1.75;1.65;;;13.20;99.90;;;;;;4985439;28;20053;-83
2023/09/23 06:23:30;;;;;;;1.40;1.35;;;12.90;99.90;;;;;;4986029;28;20045;-83
2023/09/23 06:26:05;;;;;;;1.52;1.45;;;12.90;99.90;;;;;;5001609;28;20050;-84
2023/09/23 06:28:33;;;;;;;1.95;1.85;;;13.30;99.90;;;;;;4985550;28;20052;-82
2023/09/23 06:30:59;;;;;;;2.33;2.22;;;13.00;99.90;;;;;;4984176;28;20049;-83
2023/09/23 06:33:24;;;;;;;1.85;1.75;;;13.20;99.90;;;;;;4986099;28;20056;-83
2023/09/23 06:35:50;;;;;;;1.65;1.55;;;13.10;99.90;;;;;;4983859;28;20050;-82
2023/09/23 06:38:16;;;;;;;1.52;1.45;;;13.20;99.90;;;;;;4985993;28;20057;-83
2023/09/23 06:40:42;;;;;;;1.67;1.58;;;13.20;99.90;;;;;;5001449;28;20058;-83
2023/09/23 06:43:08;;;;;;;1.52;1.45;;;13.20;99.90;;;;;;4985569;28;20050;-83
2023/09/23 06:45:35;;;;;;;1.92;1.83;;;13.40;99.90;;;;;;4985344;28;20084;-81
2023/09/23 06:48:01;;;;;;;1.45;1.40;;;13.50;99.90;;;;;;4982978;28;20053;-82
2023/09/23 06:50:27;;;;;;;1.48;1.40;;;13.30;99.90;;;;;;4985385;28;20053;-81
2023/09/23 06:52:53;;;;;;;1.77;1.67;;;13.50;99.90;;;;;;4986038;28;20054;-82
2023/09/23 06:55:19;;;;;;;1.77;1.67;;;13.40;99.90;;;;;;4985127;28;20042;-82
2023/09/23 06:57:44;;;;;;;1.40;1.38;;;13.40;99.90;;;;;;5003944;28;20050;-82
2023/09/23 07:00:11;;;;;;;1.80;1.70;;;13.60;99.90;;;;;;4989640;28;20037;-83
2023/09/23 07:02:36;;;;;;;1.75;1.65;;;13.60;99.90;;;;;;4989664;28;20049;-84
2023/09/23 07:05:03;;;;;;;1.75;1.65;;;13.60;99.90;;;;;;4989071;28;20053;-82
2023/09/23 07:07:28;;;;;;;1.35;1.33;;;13.60;99.90;;;;;;4989210;28;20056;-82
2023/09/23 07:09:54;;;;;;;1.80;1.70;;;13.90;99.90;;;;;;5006368;28;20415;-85
2023/09/23 07:12:20;;;;;;;1.75;1.65;;;13.80;99.90;;;;;;4989978;28;20128;-83
2023/09/23 07:14:46;;;;;;;1.85;1.75;;;13.90;99.90;;;;;;4989516;28;20512;-83
2023/09/23 07:17:11;;;;;;;1.48;1.42;;;13.80;99.90;;;;;;4989037;28;20046;-84
2023/09/23 07:19:38;;;;;;;1.33;1.33;;;13.70;99.90;;;;;;4988614;28;20620;-84
2023/09/23 07:22:04;;;;;;;1.70;1.60;;;13.70;99.90;;;;;;4988660;28;20121;-84
2023/09/23 07:24:33;;;;;;;1.20;1.20;;;14.00;99.90;;;;;;4973589;28;20212;-86
2023/09/23 07:26:59;;;;;;;1.60;1.50;;;14.10;99.90;;;;;;4988467;28;20057;-83
2023/09/23 07:29:25;;;;;;;1.55;1.45;;;14.00;99.90;;;;;;4986213;28;20050;-83
2023/09/23 07:31:53;;;;;;;0.93;0.93;;;14.50;99.90;;;;;;4987939;28;20049;-83
2023/09/23 07:34:18;;;;;;;1.30;1.30;;;14.30;99.90;;;;;;4987749;28;20126;-83
2023/09/23 07:36:44;;;;;;;1.15;1.15;;;14.30;99.90;;;;;;4987320;28;20381;-82
2023/09/23 07:39:10;;;;;;;1.58;1.48;;;14.50;99.90;;;;;;4986284;28;20046;-82
2023/09/23 07:41:36;;;;;;;1.60;1.50;;;14.50;99.90;;;;;;4988708;28;20033;-88
2023/09/23 07:44:03;;;;;;;1.70;1.60;;;14.50;99.90;;;;;;5005294;28;20518;-83
2023/09/23 07:46:29;;;;;;;1.70;1.60;;;14.50;99.90;;;;;;4987955;28;20049;-84
2023/09/23 07:48:54;;;;;;;1.45;1.38;;;14.60;99.90;;;;;;4987421;28;20057;-84
2023/09/23 07:51:20;;;;;;;1.70;1.60;;;14.80;99.90;;;;;;4988434;28;20407;-83
2023/09/23 07:53:46;;;;;;;1.60;1.50;;;14.50;99.90;;;;;;4988531;28;20045;-84
2023/09/23 07:56:11;;;;;;;1.63;1.52;;;14.70;99.90;;;;;;4991975;28;20056;-81
2023/09/23 07:58:37;;;;;;;1.48;1.40;;;14.80;99.90;;;;;;4987825;28;20042;-82
2023/09/23 08:01:03;;;;;;;1.75;1.65;;;14.80;99.90;;;;;;4988137;28;20057;-83
2023/09/23 08:03:29;;;;;;;1.65;1.55;;;15.00;99.90;;;;;;4983909;28;20850;-86
2023/09/23 08:05:55;;;;;;;1.73;1.63;;;15.00;99.90;;;;;;4985483;28;20053;-85
2023/09/23 08:08:21;;;;;;;1.35;1.33;;;15.30;99.90;;;;;;4976409;28;20443;-83
2023/09/23 08:10:49;;;;;;;1.58;1.48;;;15.20;99.90;;;;;;4984740;28;20046;-85
2023/09/23 08:13:19;;;;;;;1.58;1.48;;;15.30;99.90;;;;;;5002814;28;20569;-81
2023/09/23 08:15:45;;;;;;;1.35;1.33;;;15.30;99.90;;;;;;5003346;28;20663;-82
2023/09/23 08:18:12;;;;;;;1.10;1.10;;;15.20;99.90;;;;;;4986956;28;20053;-83
2023/09/23 08:20:39;;;;;;;1.13;1.13;;;15.20;99.90;;;;;;4985752;28;20479;-84
2023/09/23 08:23:05;;;;;;;1.23;1.23;;;15.10;99.90;;;;;;4987155;28;20136;-80
2023/09/23 08:25:31;;;;;;;1.45;1.40;;;15.00;99.90;;;;;;4987321;28;20080;-83
2023/09/23 08:27:57;;;;;;;1.05;1.05;;;14.90;99.90;;;;;;4984282;28;20661;-83
2023/09/23 08:30:23;;;;;;;1.20;1.20;;;15.20;99.90;;;;;;4985221;28;20068;-82
2023/09/23 08:32:49;;;;;;;1.13;1.13;;;15.20;99.90;;;;;;4987267;28;20069;-84
2023/09/23 08:35:15;;;;;;;1.05;1.05;;;15.60;99.90;;;;;;4987318;28;20050;-84
2023/09/23 08:37:41;;;;;;;1.08;1.08;;;15.70;99.90;;;;;;4986808;28;20041;-84
2023/09/23 08:40:09;;;;;;;1.13;1.02;;;16.00;99.90;;;;;;5003748;28;20135;-84
2023/09/23 08:42:34;;;;;;;0.80;0.80;;;16.00;99.90;;;;;;4985791;28;20143;-81
2023/09/23 08:45:00;;;;;;;0.80;0.80;;;16.30;99.90;;;;;;4984975;28;20488;-84
2023/09/23 08:47:26;;;;;;;0.80;0.80;;;16.40;99.90;;;;;;4983633;28;20133;-83
2023/09/23 08:49:52;;;;;;;0.82;0.82;;;16.30;99.90;;;;;;4984145;28;20079;-84
2023/09/23 08:52:19;;;;;;;0.85;0.85;;;16.60;99.90;;;;;;4986709;28;20053;-85
2023/09/23 08:54:50;;;;;;;0.95;0.95;;;16.20;99.90;;;;;;4959746;28;20056;-84
2023/09/23 08:57:16;;;;;;;0.90;0.90;;;16.10;99.90;;;;;;4978499;28;20053;-81
2023/09/23 08:59:45;;;;;;;0.90;0.90;;;16.00;99.90;;;;;;4979183;28;20050;-83
2023/09/23 09:02:16;;;;;;;1.00;1.00;;;16.30;99.90;;;;;;4996235;28;20585;-82
2023/09/23 09:04:42;;;;;;;0.98;0.98;;;16.40;99.90;;;;;;4997626;28;20515;-84
2023/09/23 09:07:08;;;;;;;1.00;1.00;;;16.70;99.90;;;;;;4986880;28;20163;-84
2023/09/23 09:09:37;;;;;;;0.90;0.90;;;16.90;99.90;;;;;;4985154;28;20050;-90
2023/09/23 09:12:05;;;;;;;1.00;1.00;;;17.00;99.90;;;;;;4973045;28;20062;-83
2023/09/23 09:14:32;;;;;;;1.10;1.10;;;16.80;99.90;;;;;;4986421;28;20799;-82
2023/09/23 09:16:58;;;;;;;1.20;1.20;;;16.80;99.90;;;;;;4986832;28;20061;-83
2023/09/23 09:19:24;;;;;;;1.10;1.10;;;16.60;99.90;;;;;;4980098;28;20049;-86
2023/09/23 09:21:50;;;;;;;1.00;1.00;;;16.80;99.90;;;;;;4964526;28;20052;-85
2023/09/23 09:24:16;;;;;;;1.10;1.10;;;16.90;99.90;;;;;;4978376;28;20046;-84
2023/09/23 09:26:44;;;;;;;1.00;1.00;;;16.70;99.90;;;;;;4982905;28;20507;-86
2023/09/23 09:29:10;;;;;;;1.00;1.00;;;16.40;99.90;;;;;;4983645;28;20053;-85
2023/09/23 09:31:38;;;;;;;0.90;0.90;;;16.20;99.90;;;;;;4987100;28;20132;-83
2023/09/23 09:34:11;;;;;;;1.00;1.00;;;16.50;99.90;;;;;;4987221;28;20085;-87
2023/09/23 09:36:40;;;;;;;1.00;1.00;;;16.60;99.90;;;;;;4970351;28;20077;-86
2023/09/23 09:39:10;;;;;;;1.00;1.00;;;16.90;99.90;;;;;;4967741;28;20053;-85
2023/09/23 09:42:05;;;;;;;1.00;1.00;;;16.90;99.90;;;;;;4986207;28;20057;-85
2023/09/23 09:44:33;;;;;;;1.10;1.10;;;17.00;99.90;;;;;;4968194;28;20636;-85
2023/09/23 09:47:00;;;;;;;0.90;0.90;;;16.90;99.90;;;;;;4974705;28;20061;-83
2023/09/23 09:49:26;;;;;;;0.98;0.98;;;16.90;99.90;;;;;;5001715;28;20046;-87
2023/09/23 09:51:52;;;;;;;1.00;1.00;;;16.90;99.90;;;;;;4985670;28;20053;-83
2023/09/23 09:54:20;;;;;;;0.90;0.90;;;17.00;99.90;;;;;;4984871;28;20054;-85
2023/09/23 09:56:49;;;;;;;0.95;0.95;;;17.10;99.90;;;;;;4986092;28;20098;-84
2023/09/23 09:59:42;;;;;;;0.90;0.90;;;17.20;99.90;;;;;;4983301;28;20073;-86
2023/09/23 10:02:08;;;;;;;0.90;0.90;;;17.20;99.90;;;;;;4980869;28;20056;-81
2023/09/23 10:04:34;;;;;;;0.88;0.88;;;17.50;99.90;;;;;;4985443;28;20038;-85
2023/09/23 10:07:00;;;;;;;0.90;0.90;;;17.80;99.90;;;;;;4987395;28;20050;-89
2023/09/23 10:09:27;;;;;;;1.00;1.00;;;17.90;99.90;;;;;;4986844;28;20505;-88
2023/09/23 10:12:01;;;;;;;1.00;1.00;;;17.90;99.90;;;;;;4984834;28;20843;-89
2023/09/23 10:14:29;;;;;;;0.90;0.90;;;17.90;99.90;;;;;;4971644;28;20517;-88
2023/09/23 10:17:00;;;;;;;0.85;0.85;;;18.10;99.90;;;;;;4969558;28;20050;-87
2023/09/23 10:19:29;;;;;;;0.80;0.80;;;18.00;99.90;;;;;;4985523;28;20049;-83
2023/09/23 10:22:18;;;;;;;0.90;0.90;;;18.00;99.90;;;;;;4984780;28;20050;-87
2023/09/23 10:25:11;;;;;;;0.88;0.88;;;17.90;99.90;;;;;;4969566;28;20069;-84
2023/09/23 10:27:39;;;;;;;0.83;0.83;;;17.90;99.90;;;;;;4982345;28;20060;-84
2023/09/23 10:30:06;;;;;;;0.90;0.90;;;17.80;99.90;;;;;;4985947;28;20050;-85
2023/09/23 10:32:32;;;;;;;1.02;1.02;;;17.90;99.90;;;;;;4986574;28;20053;-88
2023/09/23 10:34:59;;;;;;;1.00;1.00;;;17.80;99.90;;;;;;4991966;28;20054;-90
2023/09/23 10:37:32;;;;;;;0.90;0.90;;;17.90;99.90;;;;;;4989320;28;20054;-86
2023/09/23 10:40:13;;;;;;;0.80;0.80;;;17.60;99.90;;;;;;5006520;28;20049;-86
2023/09/23 10:42:44;;;;;;;0.98;0.98;;;17.50;99.90;;;;;;4972967;28;20049;-87
2023/09/23 10:45:11;;;;;;;0.93;0.93;;;17.50;99.90;;;;;;4990518;28;20061;-89
2023/09/23 10:47:37;;;;;;;0.80;0.80;;;17.30;99.90;;;;;;4995765;28;20503;-88
2023/09/23 10:50:11;;;;;;;0.90;0.90;;;17.30;99.90;;;;;;4989996;28;20050;-85
2023/09/23 10:52:59;;;;;;;0.80;0.80;;;17.80;99.90;;;;;;4977055;28;20045;-86
2023/09/23 10:55:23;;;;;;;0.80;0.80;;;17.80;99.90;;;;;;4986986;28;20045;-87
2023/09/23 10:57:50;;;;;;;1.10;1.10;;;17.40;99.90;;;;;;4972592;28;20056;-87
2023/09/23 11:00:18;;;;;;;0.93;0.93;;;17.20;99.90;;;;;;4991524;28;20053;-84
2023/09/23 11:02:44;;;;;;;0.90;0.90;;;17.10;99.90;;;;;;4988529;28;20076;-87
2023/09/23 11:05:10;;;;;;;0.80;0.80;;;17.20;99.90;;;;;;4988354;28;20748;-85
2023/09/23 11:07:36;;;;;;;0.80;0.80;;;17.30;99.90;;;;;;4988701;28;20124;-88
2023/09/23 11:10:02;;;;;;;0.80;0.80;;;17.20;99.90;;;;;;4989861;28;20515;-89
2023/09/23 11:12:32;;;;;;;0.80;0.80;;;17.20;99.90;;;;;;4990917;28;20068;-87
2023/09/23 11:14:58;;;;;;;0.80;0.80;;;17.20;99.90;;;;;;4970781;28;20049;-89
2023/09/23 11:17:30;;;;;;;0.80;0.80;;;17.60;99.90;;;;;;4973329;28;20578;-86
2023/09/23 11:19:57;;;;;;;0.80;0.80;;;17.60;99.90;;;;;;4988213;28;20052;-84
2023/09/23 11:22:30;;;;;;;0.90;0.90;;;17.60;99.90;;;;;;4987199;28;20049;-85
2023/09/23 11:24:57;;;;;;;0.80;0.80;;;17.70;99.90;;;;;;5003559;28;20423;-88
2023/09/23 11:27:26;;;;;;;0.90;0.90;;;17.60;99.90;;;;;;5006533;28;20466;-90
2023/09/23 11:29:58;;;;;;;0.80;0.80;;;17.50;99.90;;;;;;4992981;28;20198;-93
2023/09/23 11:32:25;;;;;;;0.80;0.80;;;17.50;99.90;;;;;;4969278;28;20052;-86
2023/09/23 11:34:52;;;;;;;0.80;0.80;;;17.30;99.90;;;;;;4987221;28;20053;-85
2023/09/23 11:37:20;;;;;;;0.80;0.80;;;17.50;99.90;;;;;;4988292;28;20488;-84
2023/09/23 11:39:46;;;;;;;0.80;0.80;;;17.40;99.90;;;;;;4972276;28;20041;-86
2023/09/23 11:42:12;;;;;;;0.80;0.80;;;17.50;99.90;;;;;;4989798;28;20042;-86
2023/09/23 11:44:38;;;;;;;0.80;0.80;;;18.10;99.90;;;;;;4990077;28;20392;-86
2023/09/23 11:47:04;;;;;;;0.90;0.90;;;18.30;99.90;;;;;;4973555;28;20034;-84
2023/09/23 11:49:30;;;;;;;1.00;1.00;;;18.50;99.90;;;;;;4988272;28;20038;-85
2023/09/23 11:51:59;;;;;;;0.90;0.90;;;18.40;99.90;;;;;;4991884;28;20049;-95
2023/09/23 11:54:25;;;;;;;0.90;0.90;;;18.40;99.90;;;;;;4972306;28;20053;-87
2023/09/23 11:56:51;;;;;;;0.80;0.80;;;18.30;99.90;;;;;;4988070;28;20076;-83
2023/09/23 11:59:20;;;;;;;1.08;1.08;;;18.50;99.90;;;;;;4991105;28;20046;-87
2023/09/23 12:01:48;;;;;;;0.95;0.95;;;18.30;99.90;;;;;;4988790;28;20125;-85
2023/09/23 12:04:14;;;;;;;1.10;1.10;;;18.20;99.90;;;;;;4987001;28;20960;-83
2023/09/23 12:06:40;;;;;;;1.00;1.00;;;18.20;99.90;;;;;;4987620;28;20053;-85
2023/09/23 12:09:09;;;;;;;0.95;0.95;;;18.40;99.90;;;;;;4970879;28;20552;-92
2023/09/23 12:11:35;;;;;;;1.05;1.05;;;18.50;99.90;;;;;;4972172;28;20137;-83
2023/09/23 12:14:01;;;;;;;0.95;0.95;;;18.90;99.90;;;;;;4991645;28;20531;-88
2023/09/23 12:16:33;;;;;;;0.90;0.90;;;18.90;99.90;;;;;;5004156;28;20566;-88
2023/09/23 12:18:58;;;;;;;0.88;0.88;;;19.10;99.90;;;;;;4989005;28;20050;-88
2023/09/23 12:21:24;;;;;;;0.90;0.90;;;19.20;99.90;;;;;;4971575;28;20493;-86
2023/09/23 12:23:59;;;;;;;0.90;0.90;;;19.40;99.90;;;;;;4989263;28;20531;-90
2023/09/23 12:26:43;;;;;;;0.93;0.93;;;19.60;99.90;;;;;;4993308;28;20064;-90
2023/09/23 12:29:08;;;;;;;0.85;0.85;;;19.20;99.90;;;;;;4991088;28;20053;-83
2023/09/23 12:31:34;;;;;;;0.88;0.88;;;18.80;99.90;;;;;;4988007;28;20048;-85
2023/09/23 12:34:03;;;;;;;0.93;0.93;;;18.50;99.90;;;;;;5004964;28;20048;-91
2023/09/23 12:36:29;;;;;;;0.95;0.95;;;19.20;99.90;;;;;;4987825;28;20053;-87
2023/09/23 12:38:57;;;;;;;0.80;0.80;;;19.20;99.90;;;;;;4987680;28;20041;-87
2023/09/23 12:41:23;;;;;;;0.93;0.93;;;19.00;99.90;;;;;;4985064;28;20057;-89
2023/09/23 12:43:49;;;;;;;0.95;0.95;;;19.20;99.90;;;;;;4985373;28;20046;-85
2023/09/23 12:46:14;;;;;;;0.85;0.85;;;19.60;99.90;;;;;;4987848;28;22286;-83
2023/09/23 12:48:40;;;;;;;0.82;0.82;;;19.60;99.90;;;;;;4986070;28;20050;-86
2023/09/23 12:51:07;;;;;;;0.80;0.80;;;19.40;99.90;;;;;;4985223;28;20042;-86